Time;durP1;ratioP1;P1;durP2;ratioP2;P2;SDS_P1;SDS_P2;PMS_P1;PMS_P2;Temp;Humidity;BMP_temperature;BMP_pressure;BME280_temperature;BME280_humidity;BME280_pressure;Samples;Min_cycle;Max_cycle;Signal;HPM_P1;HPM_P2
2023/05/10 00:00:34;;;;;;;6.90;2.80;;;;;;;;;;4992678;28;20034;-66
2023/05/10 00:03:00;;;;;;;5.78;2.75;;;;;;;;;;4991532;28;20109;-66
2023/05/10 00:05:26;;;;;;;5.63;3.33;;;;;;;;;;4992867;28;20065;-66
2023/05/10 00:07:52;;;;;;;4.10;2.50;;;;;;;;;;4991486;28;20041;-66
2023/05/10 00:10:18;;;;;;;5.10;2.65;;;;;;;;;;4991537;28;20479;-66
2023/05/10 00:12:44;;;;;;;4.30;2.20;;;;;;;;;;4992247;28;20444;-66
2023/05/10 00:15:10;;;;;;;3.45;1.67;;;;;;;;;;4992811;28;20501;-66
2023/05/10 00:17:36;;;;;;;3.83;2.03;;;;;;;;;;4991280;28;20606;-67
2023/05/10 00:20:04;;;;;;;5.15;2.33;;;;;;;;;;4991038;28;20500;-66
2023/05/10 00:22:31;;;;;;;3.88;2.22;;;;;;;;;;4991292;28;20606;-66
2023/05/10 00:24:57;;;;;;;3.78;2.15;;;;;;;;;;4991899;28;20105;-65
2023/05/10 00:27:23;;;;;;;5.65;2.30;;;;;;;;;;4992378;28;20161;-67
2023/05/10 00:29:49;;;;;;;5.88;1.58;;;;;;;;;;4990887;28;20193;-65
2023/05/10 00:32:15;;;;;;;2.13;1.63;;;;;;;;;;4992437;28;20037;-67
2023/05/10 00:34:41;;;;;;;2.55;1.70;;;;;;;;;;4991264;28;20112;-67
2023/05/10 00:37:08;;;;;;;3.50;1.42;;;;;;;;;;4992211;28;20386;-66
2023/05/10 00:39:34;;;;;;;4.40;2.10;;;;;;;;;;4990845;28;20128;-66
2023/05/10 00:42:00;;;;;;;3.10;1.45;;;;;;;;;;4992377;28;20049;-66
2023/05/10 00:44:26;;;;;;;1.83;1.50;;;;;;;;;;4992234;28;20448;-66
2023/05/10 00:46:53;;;;;;;3.33;1.50;;;;;;;;;;4991981;28;20096;-66
2023/05/10 00:49:19;;;;;;;3.22;1.40;;;;;;;;;;4992073;28;20054;-66
2023/05/10 00:51:45;;;;;;;2.58;1.67;;;;;;;;;;4990859;28;20468;-66
2023/05/10 00:54:12;;;;;;;2.55;1.77;;;;;;;;;;4992189;28;20042;-67
2023/05/10 00:56:38;;;;;;;2.70;1.58;;;;;;;;;;4991942;28;20065;-66
2023/05/10 00:59:04;;;;;;;2.05;1.60;;;;;;;;;;4990340;28;20058;-65
2023/05/10 01:01:31;;;;;;;9.50;2.40;;;;;;;;;;4991831;28;20023;-66
2023/05/10 01:03:57;;;;;;;3.15;1.70;;;;;;;;;;4992001;28;20030;-66
2023/05/10 01:06:23;;;;;;;3.72;1.90;;;;;;;;;;4991717;28;20486;-66
2023/05/10 01:08:49;;;;;;;2.97;1.73;;;;;;;;;;4990792;28;20035;-67
2023/05/10 01:11:15;;;;;;;4.22;1.80;;;;;;;;;;4990254;28;20033;-65
2023/05/10 01:13:42;;;;;;;2.08;1.83;;;;;;;;;;4992056;28;20030;-64
2023/05/10 01:16:08;;;;;;;5.60;1.98;;;;;;;;;;4991699;28;20069;-66
2023/05/10 01:18:37;;;;;;;2.42;1.95;;;;;;;;;;4991727;28;20100;-66
2023/05/10 01:21:15;;;;;;;4.15;2.35;;;;;;;;;;4991363;28;20050;-67
2023/05/10 01:24:00;;;;;;;5.13;2.90;;;;;;;;;;4990534;28;20110;-66
2023/05/10 01:26:41;;;;;;;4.82;2.03;;;;;;;;;;4991472;28;20022;-65
2023/05/10 01:29:07;;;;;;;4.80;2.13;;;;;;;;;;4991737;28;20129;-65
2023/05/10 01:31:51;;;;;;;3.30;2.10;;;;;;;;;;4991720;28;20088;-66
2023/05/10 01:34:21;;;;;;;3.40;2.28;;;;;;;;;;4991393;28;20049;-65
2023/05/10 01:36:55;;;;;;;4.07;2.42;;;;;;;;;;4991505;28;20054;-66
2023/05/10 01:39:25;;;;;;;2.58;2.08;;;;;;;;;;4990467;28;20034;-66
2023/05/10 01:41:51;;;;;;;4.28;2.10;;;;;;;;;;4990769;28;20024;-64
2023/05/10 01:44:43;;;;;;;4.05;2.72;;;;;;;;;;4991381;28;20027;-65
2023/05/10 01:47:11;;;;;;;6.53;2.80;;;;;;;;;;4988737;28;20046;-66
2023/05/10 01:49:42;;;;;;;4.45;2.70;;;;;;;;;;4991375;28;20118;-65
2023/05/10 01:52:10;;;;;;;3.90;2.63;;;;;;;;;;4993635;28;20114;-66
2023/05/10 01:54:36;;;;;;;4.50;2.60;;;;;;;;;;4995330;28;20022;-65
2023/05/10 01:57:04;;;;;;;5.78;2.63;;;;;;;;;;4994672;28;20038;-65
2023/05/10 01:59:32;;;;;;;5.72;2.90;;;;;;;;;;4994192;28;20027;-67
2023/05/10 02:01:59;;;;;;;4.47;2.50;;;;;;;;;;4995043;28;20026;-66
2023/05/10 02:04:26;;;;;;;3.63;2.35;;;;;;;;;;4993340;28;20033;-67
2023/05/10 02:06:53;;;;;;;5.00;3.03;;;;;;;;;;4994534;28;20018;-68
2023/05/10 02:09:20;;;;;;;3.60;2.53;;;;;;;;;;4994605;28;20042;-67
2023/05/10 02:11:48;;;;;;;4.80;2.90;;;;;;;;;;4993647;28;20046;-68
2023/05/10 02:14:16;;;;;;;5.53;3.10;;;;;;;;;;4994661;28;20033;-67
2023/05/10 02:16:43;;;;;;;6.35;3.03;;;;;;;;;;4993504;28;20398;-67
2023/05/10 02:19:10;;;;;;;5.88;3.30;;;;;;;;;;4994237;28;20087;-67
2023/05/10 02:21:38;;;;;;;7.25;3.20;;;;;;;;;;4994404;28;20042;-66
2023/05/10 02:24:04;;;;;;;6.43;3.25;;;;;;;;;;4994706;28;20036;-66
2023/05/10 02:26:32;;;;;;;8.48;3.80;;;;;;;;;;4994441;28;20049;-66
2023/05/10 02:28:58;;;;;;;12.23;4.35;;;;;;;;;;4994461;28;20034;-67
2023/05/10 02:31:25;;;;;;;8.82;4.22;;;;;;;;;;4993982;28;20109;-67
2023/05/10 02:33:52;;;;;;;11.80;4.70;;;;;;;;;;4992471;28;20435;-67
2023/05/10 02:36:19;;;;;;;6.82;3.88;;;;;;;;;;4994250;28;20109;-67
2023/05/10 02:38:46;;;;;;;8.55;3.97;;;;;;;;;;4994347;28;20022;-68
2023/05/10 02:41:12;;;;;;;10.23;4.32;;;;;;;;;;4993927;28;20037;-67
2023/05/10 02:43:40;;;;;;;14.32;4.70;;;;;;;;;;4993997;28;20027;-66
2023/05/10 02:46:06;;;;;;;8.45;4.35;;;;;;;;;;4993873;28;20044;-67
2023/05/10 02:48:32;;;;;;;7.78;4.10;;;;;;;;;;4991443;28;20034;-66
2023/05/10 02:51:03;;;;;;;11.35;4.20;;;;;;;;;;4993989;28;20029;-66
2023/05/10 02:53:31;;;;;;;7.70;4.22;;;;;;;;;;4993301;28;20022;-68
2023/05/10 02:55:59;;;;;;;10.95;4.05;;;;;;;;;;4993788;28;20626;-67
2023/05/10 02:58:26;;;;;;;11.02;4.85;;;;;;;;;;4993812;28;20042;-66
2023/05/10 03:00:52;;;;;;;8.88;4.30;;;;;;;;;;4993791;28;20526;-66
2023/05/10 03:03:18;;;;;;;12.48;4.78;;;;;;;;;;4974373;28;20037;-67
2023/05/10 03:05:44;;;;;;;8.90;4.80;;;;;;;;;;4974105;28;20484;-67
2023/05/10 03:08:11;;;;;;;13.27;5.13;;;;;;;;;;4992234;28;20089;-66
2023/05/10 03:10:41;;;;;;;13.20;5.00;;;;;;;;;;4993605;28;20422;-67
2023/05/10 03:13:29;;;;;;;7.93;4.53;;;;;;;;;;4993517;28;20034;-67
2023/05/10 03:16:16;;;;;;;11.27;4.57;;;;;;;;;;4993569;28;20027;-67
2023/05/10 03:18:43;;;;;;;9.90;5.60;;;;;;;;;;4993439;28;20483;-67
2023/05/10 03:21:12;;;;;;;13.88;5.55;;;;;;;;;;4993207;28;20056;-68
2023/05/10 03:23:44;;;;;;;10.95;5.60;;;;;;;;;;4992236;28;20018;-67
2023/05/10 03:26:10;;;;;;;;;;;;;;;;;;4993908;28;20026;-66
2023/05/10 03:28:36;;;;;;;16.85;5.68;;;;;;;;;;4992793;28;19921;-67
2023/05/10 03:31:03;;;;;;;12.32;5.82;;;;;;;;;;4993464;28;20026;-66
2023/05/10 03:33:29;;;;;;;12.32;6.45;;;;;;;;;;4992971;28;20077;-67
2023/05/10 03:35:55;;;;;;;11.80;6.50;;;;;;;;;;4993266;28;20026;-66
2023/05/10 03:38:21;;;;;;;16.70;6.00;;;;;;;;;;4991927;28;20024;-66
2023/05/10 03:40:47;;;;;;;12.73;6.03;;;;;;;;;;4992862;28;20105;-67
2023/05/10 03:43:15;;;;;;;17.67;7.18;;;;;;;;;;4993136;28;20081;-67
2023/05/10 03:45:41;;;;;;;15.93;6.35;;;;;;;;;;4991666;28;20030;-67
2023/05/10 03:48:07;;;;;;;18.45;7.75;;;;;;;;;;4992963;28;20034;-67
2023/05/10 03:50:33;;;;;;;19.38;7.60;;;;;;;;;;4992459;28;20030;-67
2023/05/10 03:52:59;;;;;;;16.38;6.70;;;;;;;;;;4992633;28;20387;-67
2023/05/10 03:55:26;;;;;;;17.65;7.43;;;;;;;;;;4991818;28;20030;-67
2023/05/10 03:57:53;;;;;;;17.70;7.13;;;;;;;;;;4992853;28;20026;-67
2023/05/10 04:00:19;;;;;;;19.08;7.07;;;;;;;;;;4992371;28;20114;-67
2023/05/10 04:02:45;;;;;;;17.73;7.05;;;;;;;;;;4992186;28;20026;-67
2023/05/10 04:05:12;;;;;;;15.80;7.15;;;;;;;;;;4992623;28;20053;-67
2023/05/10 04:07:38;;;;;;;21.52;8.00;;;;;;;;;;4992449;28;20026;-66
2023/05/10 04:10:04;;;;;;;16.45;7.47;;;;;;;;;;4991417;28;20049;-66
2023/05/10 04:12:30;;;;;;;14.77;8.00;;;;;;;;;;4992692;28;20027;-66
2023/05/10 04:14:57;;;;;;;16.75;7.88;;;;;;;;;;4991668;28;20026;-66
2023/05/10 04:17:23;;;;;;;17.42;7.60;;;;;;;;;;4992407;28;20080;-66
2023/05/10 04:19:49;;;;;;;18.80;7.13;;;;;;;;;;4992074;28;20112;-66
2023/05/10 04:22:15;;;;;;;15.70;7.60;;;;;;;;;;4992416;28;20022;-66
2023/05/10 04:24:41;;;;;;;19.67;7.40;;;;;;;;;;4992062;28;20022;-67
2023/05/10 04:27:07;;;;;;;24.95;8.85;;;;;;;;;;4990818;28;20026;-66
2023/05/10 04:29:33;;;;;;;15.75;7.50;;;;;;;;;;4992084;28;20467;-66
2023/05/10 04:31:59;;;;;;;19.25;8.15;;;;;;;;;;4992155;28;20028;-67
2023/05/10 04:34:25;;;;;;;23.73;8.50;;;;;;;;;;4992171;28;20026;-66
2023/05/10 04:36:51;;;;;;;16.90;8.30;;;;;;;;;;4991845;28;20029;-67
2023/05/10 04:39:17;;;;;;;19.30;8.20;;;;;;;;;;4991116;28;20034;-67
2023/05/10 04:41:44;;;;;;;23.25;8.35;;;;;;;;;;4992245;28;20041;-67
2023/05/10 04:44:10;;;;;;;24.67;8.30;;;;;;;;;;4991314;28;20471;-68
2023/05/10 04:46:36;;;;;;;23.42;8.68;;;;;;;;;;4992226;28;20029;-66
2023/05/10 04:49:02;;;;;;;17.45;8.32;;;;;;;;;;4991606;28;20041;-66
2023/05/10 04:51:28;;;;;;;20.50;7.97;;;;;;;;;;4992213;28;20030;-66
2023/05/10 04:53:54;;;;;;;22.73;7.40;;;;;;;;;;4990745;28;20026;-66
2023/05/10 04:56:21;;;;;;;21.52;8.30;;;;;;;;;;4992110;28;20030;-67
2023/05/10 04:58:47;;;;;;;19.55;8.50;;;;;;;;;;4992161;28;20022;-67
2023/05/10 05:01:13;;;;;;;27.17;8.57;;;;;;;;;;4990502;28;20030;-67
2023/05/10 05:03:39;;;;;;;20.50;8.30;;;;;;;;;;4991613;28;20145;-67
2023/05/10 05:06:06;;;;;;;20.25;8.07;;;;;;;;;;4991951;28;20434;-66
2023/05/10 05:08:32;;;;;;;18.50;8.57;;;;;;;;;;4990436;28;20438;-67
2023/05/10 05:10:59;;;;;;;23.48;8.98;;;;;;;;;;4990293;28;20042;-66
2023/05/10 05:13:25;;;;;;;22.70;9.07;;;;;;;;;;4991693;28;20038;-67
2023/05/10 05:15:51;;;;;;;21.38;8.75;;;;;;;;;;4991651;28;20027;-66
2023/05/10 05:18:17;;;;;;;26.85;9.55;;;;;;;;;;4990611;28;20109;-67
2023/05/10 05:20:43;;;;;;;25.08;8.95;;;;;;;;;;4991085;28;20104;-67
2023/05/10 05:23:09;;;;;;;22.73;8.23;;;;;;;;;;4990510;28;20023;-67
2023/05/10 05:25:35;;;;;;;22.30;8.27;;;;;;;;;;4990881;28;20081;-68
2023/05/10 05:28:01;;;;;;;22.27;7.97;;;;;;;;;;4994054;28;20102;-68
2023/05/10 05:30:27;;;;;;;21.02;7.55;;;;;;;;;;4994276;28;20054;-66
2023/05/10 05:32:53;;;;;;;21.58;8.15;;;;;;;;;;4994137;28;20057;-66
2023/05/10 05:35:19;;;;;;;15.23;7.32;;;;;;;;;;4991523;28;20030;-68
2023/05/10 05:37:45;;;;;;;21.08;7.55;;;;;;;;;;4994378;28;20166;-67
2023/05/10 05:40:14;;;;;;;21.27;8.48;;;;;;;;;;4994083;28;20490;-66
2023/05/10 05:42:41;;;;;;;21.13;7.97;;;;;;;;;;4994058;28;20037;-66
2023/05/10 05:45:08;;;;;;;20.17;7.88;;;;;;;;;;4992568;28;20034;-67
2023/05/10 05:47:34;;;;;;;23.25;8.68;;;;;;;;;;4993869;28;20029;-67
2023/05/10 05:50:00;;;;;;;19.50;8.05;;;;;;;;;;4992945;28;20112;-67
2023/05/10 05:52:26;;;;;;;20.35;8.25;;;;;;;;;;4992745;28;20471;-67
2023/05/10 05:54:52;;;;;;;17.85;7.03;;;;;;;;;;4992977;28;20064;-68
2023/05/10 05:57:18;;;;;;;15.45;7.40;;;;;;;;;;4991880;28;20022;-66
2023/05/10 05:59:45;;;;;;;19.33;6.75;;;;;;;;;;4990809;28;20097;-66
2023/05/10 06:02:11;;;;;;;15.73;6.63;;;;;;;;;;4990669;28;20023;-67
2023/05/10 06:04:37;;;;;;;17.33;6.47;;;;;;;;;;4992045;28;20109;-66
2023/05/10 06:07:03;;;;;;;15.70;5.97;;;;;;;;;;4989659;28;20239;-66
2023/05/10 06:09:29;;;;;;;15.18;6.72;;;;;;;;;;4991711;28;20030;-65
2023/05/10 06:11:56;;;;;;;15.55;6.05;;;;;;;;;;4994206;28;20105;-68
2023/05/10 06:14:22;;;;;;;13.10;5.30;;;;;;;;;;4993600;28;20022;-67
2023/05/10 06:16:48;;;;;;;17.13;5.68;;;;;;;;;;4993851;28;20026;-67
2023/05/10 06:19:14;;;;;;;18.05;6.05;;;;;;;;;;4993438;28;20031;-66
2023/05/10 06:21:40;;;;;;;15.30;5.32;;;;;;;;;;4953132;28;1206608;-67
2023/05/10 06:24:06;;;;;;;15.00;6.03;;;;;;;;;;4993745;28;20097;-66
2023/05/10 06:26:33;;;;;;;17.10;5.88;;;;;;;;;;4994244;28;20018;-67
2023/05/10 06:28:59;;;;;;;15.88;5.38;;;;;;;;;;4994229;28;20125;-66
2023/05/10 06:31:25;;;;;;;17.33;6.10;;;;;;;;;;4994457;28;20037;-66
2023/05/10 06:33:51;;;;;;;13.93;4.80;;;;;;;;;;4994628;28;20105;-67
2023/05/10 06:36:17;;;;;;;11.57;5.03;;;;;;;;;;4990730;28;20034;-65
2023/05/10 06:38:43;;;;;;;11.45;5.22;;;;;;;;;;4991555;28;20023;-68
2023/05/10 06:41:09;;;;;;;11.45;4.82;;;;;;;;;;4994205;28;20026;-68
2023/05/10 06:43:35;;;;;;;12.93;5.35;;;;;;;;;;4994083;28;20081;-68
2023/05/10 06:46:01;;;;;;;11.73;4.88;;;;;;;;;;4993586;28;20066;-68
2023/05/10 06:48:28;;;;;;;13.00;4.22;;;;;;;;;;4993319;28;20027;-68
2023/05/10 06:50:54;;;;;;;11.68;4.70;;;;;;;;;;4993937;28;20057;-68
2023/05/10 06:53:20;;;;;;;13.52;4.13;;;;;;;;;;4993950;28;20025;-69
2023/05/10 06:55:46;;;;;;;12.30;5.07;;;;;;;;;;4992251;28;20625;-68
2023/05/10 06:58:12;;;;;;;11.05;5.10;;;;;;;;;;4990300;28;20034;-68
2023/05/10 07:00:40;;;;;;;10.30;4.85;;;;;;;;;;4993875;28;20030;-69
2023/05/10 07:03:06;;;;;;;19.42;5.13;;;;;;;;;;4990598;28;20665;-68
2023/05/10 07:05:33;;;;;;;16.98;6.28;;;;;;;;;;4982815;28;20038;-67
2023/05/10 07:07:59;;;;;;;13.38;5.22;;;;;;;;;;4988036;28;20057;-68
2023/05/10 07:10:25;;;;;;;17.13;4.50;;;;;;;;;;4991623;28;20030;-70
2023/05/10 07:12:51;;;;;;;14.07;5.00;;;;;;;;;;4990992;28;20101;-69
2023/05/10 07:15:17;;;;;;;12.27;4.88;;;;;;;;;;4992995;28;20105;-68
2023/05/10 07:17:43;;;;;;;12.32;4.45;;;;;;;;;;4991116;28;20030;-68
2023/05/10 07:20:09;;;;;;;16.60;4.40;;;;;;;;;;4993211;28;20050;-68
2023/05/10 07:22:35;;;;;;;13.80;4.25;;;;;;;;;;4990994;28;20419;-68
2023/05/10 07:25:02;;;;;;;17.85;5.80;;;;;;;;;;4993690;28;20026;-67
2023/05/10 07:27:28;;;;;;;15.95;5.38;;;;;;;;;;4992505;28;20375;-68
2023/05/10 07:29:54;;;;;;;13.30;3.97;;;;;;;;;;4991839;28;20563;-68
2023/05/10 07:32:21;;;;;;;10.60;3.45;;;;;;;;;;4993215;28;20080;-68
2023/05/10 07:34:47;;;;;;;9.85;3.60;;;;;;;;;;4993756;28;20026;-68
2023/05/10 07:37:13;;;;;;;8.63;3.47;;;;;;;;;;4993258;28;20022;-68
2023/05/10 07:39:39;;;;;;;13.80;3.78;;;;;;;;;;4993337;28;20053;-68
2023/05/10 07:42:05;;;;;;;16.70;4.00;;;;;;;;;;4992643;28;20076;-68
2023/05/10 07:44:31;;;;;;;8.05;3.78;;;;;;;;;;4993119;28;20097;-67
2023/05/10 07:46:57;;;;;;;11.88;5.70;;;;;;;;;;4992293;28;20607;-67
2023/05/10 07:49:24;;;;;;;13.90;4.53;;;;;;;;;;4992254;28;20121;-67
2023/05/10 07:51:50;;;;;;;12.88;4.80;;;;;;;;;;4993069;28;20471;-67
2023/05/10 07:54:16;;;;;;;16.50;4.85;;;;;;;;;;4993016;28;20391;-67
2023/05/10 07:56:45;;;;;;;20.27;5.80;;;;;;;;;;4992472;28;20440;-68
2023/05/10 07:59:15;;;;;;;21.38;6.25;;;;;;;;;;4992991;28;20022;-68
2023/05/10 08:01:41;;;;;;;14.88;5.93;;;;;;;;;;4992815;28;20102;-68
2023/05/10 08:04:07;;;;;;;16.75;5.70;;;;;;;;;;4991733;28;20121;-68
2023/05/10 08:06:33;;;;;;;18.75;6.78;;;;;;;;;;4992447;28;20018;-70
2023/05/10 08:08:59;;;;;;;15.30;7.13;;;;;;;;;;4992227;28;20034;-68
2023/05/10 08:11:27;;;;;;;13.57;5.78;;;;;;;;;;4993087;28;20018;-68
2023/05/10 08:13:53;;;;;;;19.10;7.00;;;;;;;;;;4992644;28;20030;-68
2023/05/10 08:16:19;;;;;;;18.55;7.13;;;;;;;;;;4992723;28;20049;-67
2023/05/10 08:18:46;;;;;;;15.55;7.50;;;;;;;;;;4991373;28;20490;-67
2023/05/10 08:21:12;;;;;;;15.15;7.10;;;;;;;;;;4991927;28;20141;-66
2023/05/10 08:23:38;;;;;;;15.70;6.78;;;;;;;;;;4992247;28;20030;-68
2023/05/10 08:26:04;;;;;;;16.80;6.50;;;;;;;;;;4992486;28;20042;-68
2023/05/10 08:28:31;;;;;;;16.33;7.25;;;;;;;;;;4991216;28;20022;-68
2023/05/10 08:30:57;;;;;;;17.70;6.75;;;;;;;;;;4990935;28;20126;-68
2023/05/10 08:33:23;;;;;;;16.05;6.38;;;;;;;;;;4991331;28;20041;-67
2023/05/10 08:35:49;;;;;;;15.15;6.68;;;;;;;;;;4990744;28;20034;-68
2023/05/10 08:38:15;;;;;;;17.27;6.72;;;;;;;;;;4992508;28;20502;-68
2023/05/10 08:40:42;;;;;;;16.88;5.72;;;;;;;;;;4991034;28;20199;-68
2023/05/10 08:43:09;;;;;;;17.98;6.80;;;;;;;;;;4991886;28;20033;-68
2023/05/10 08:45:39;;;;;;;17.58;6.72;;;;;;;;;;4992270;28;20030;-68
2023/05/10 08:48:11;;;;;;;21.02;6.85;;;;;;;;;;4992112;28;20037;-67
2023/05/10 08:50:39;;;;;;;18.08;6.65;;;;;;;;;;4990853;28;20141;-67
2023/05/10 08:53:06;;;;;;;17.90;5.75;;;;;;;;;;4992213;28;20029;-67
2023/05/10 08:55:33;;;;;;;15.07;6.80;;;;;;;;;;4990276;28;20076;-68
2023/05/10 08:57:59;;;;;;;18.00;5.97;;;;;;;;;;4991051;28;20041;-68
2023/05/10 09:00:26;;;;;;;17.13;6.47;;;;;;;;;;4990675;28;20416;-68
2023/05/10 09:02:52;;;;;;;20.02;6.30;;;;;;;;;;4990789;28;20026;-68
2023/05/10 09:05:18;;;;;;;15.80;6.50;;;;;;;;;;4991655;28;20336;-67
2023/05/10 09:07:44;;;;;;;18.65;5.50;;;;;;;;;;4991450;28;20025;-68
2023/05/10 09:10:11;;;;;;;16.75;5.78;;;;;;;;;;4990579;28;20034;-68
2023/05/10 09:12:38;;;;;;;14.80;4.95;;;;;;;;;;4990681;28;20027;-67
2023/05/10 09:15:04;;;;;;;15.02;4.85;;;;;;;;;;4991901;28;20097;-68
2023/05/10 09:17:30;;;;;;;18.50;4.93;;;;;;;;;;4990640;28;20029;-68
2023/05/10 09:20:06;;;;;;;15.35;4.53;;;;;;;;;;4991352;28;20078;-67
2023/05/10 09:22:33;;;;;;;15.23;5.72;;;;;;;;;;4991504;28;20484;-67
2023/05/10 09:25:09;;;;;;;14.60;4.93;;;;;;;;;;4991671;28;20526;-68
2023/05/10 09:27:39;;;;;;;17.05;4.90;;;;;;;;;;4991690;28;20028;-68
2023/05/10 09:30:06;;;;;;;17.23;5.70;;;;;;;;;;4991452;28;20039;-68
2023/05/10 09:32:43;;;;;;;13.90;5.28;;;;;;;;;;4990707;28;20046;-67
2023/05/10 09:35:10;;;;;;;14.82;4.93;;;;;;;;;;4991463;28;20058;-68
2023/05/10 09:37:36;;;;;;;15.18;4.75;;;;;;;;;;4991830;28;20026;-67
2023/05/10 09:40:05;;;;;;;19.02;5.00;;;;;;;;;;4991036;28;20110;-67
2023/05/10 09:42:31;;;;;;;15.52;5.15;;;;;;;;;;4990402;28;20029;-67
2023/05/10 09:45:04;;;;;;;14.63;4.45;;;;;;;;;;4990200;28;20031;-67
2023/05/10 09:47:35;;;;;;;12.35;3.97;;;;;;;;;;4991379;28;20025;-68
2023/05/10 09:50:03;;;;;;;9.18;4.03;;;;;;;;;;4991304;28;20376;-69
2023/05/10 09:52:30;;;;;;;15.05;6.40;;;;;;;;;;4991140;28;20054;-67
2023/05/10 09:54:56;;;;;;;15.35;3.67;;;;;;;;;;4990329;28;20034;-67
2023/05/10 09:57:23;;;;;;;11.85;4.00;;;;;;;;;;4991373;28;20101;-67
2023/05/10 09:59:50;;;;;;;13.25;4.38;;;;;;;;;;4991470;28;20475;-67
2023/05/10 10:02:16;;;;;;;12.32;3.97;;;;;;;;;;4990804;28;20026;-67
2023/05/10 10:04:43;;;;;;;14.30;4.13;;;;;;;;;;4991156;28;20141;-68
2023/05/10 10:07:09;;;;;;;15.73;4.40;;;;;;;;;;4991535;28;20104;-68
2023/05/10 10:09:35;;;;;;;14.13;4.47;;;;;;;;;;4991262;28;20031;-67
2023/05/10 10:12:02;;;;;;;13.43;4.25;;;;;;;;;;4990537;28;20052;-68
2023/05/10 10:14:29;;;;;;;16.15;5.45;;;;;;;;;;4993038;28;20030;-68
2023/05/10 10:16:55;;;;;;;15.68;5.30;;;;;;;;;;4993708;28;20019;-68
2023/05/10 10:19:22;;;;;;;13.27;4.07;;;;;;;;;;4994768;28;20026;-70
2023/05/10 10:21:48;;;;;;;20.20;4.85;;;;;;;;;;4994562;28;20043;-67
2023/05/10 10:24:14;;;;;;;18.20;4.40;;;;;;;;;;4993379;28;20034;-68
2023/05/10 10:26:42;;;;;;;12.98;3.72;;;;;;;;;;4994314;28;20073;-69
2023/05/10 10:29:08;;;;;;;19.10;4.60;;;;;;;;;;4993497;28;20069;-67
2023/05/10 10:31:41;;;;;;;15.98;4.15;;;;;;;;;;4993429;28;20065;-67
2023/05/10 10:34:09;;;;;;;16.98;5.00;;;;;;;;;;4994483;28;20050;-69
2023/05/10 10:36:45;;;;;;;16.00;4.78;;;;;;;;;;4994560;28;20029;-68
2023/05/10 10:39:12;;;;;;;12.32;4.30;;;;;;;;;;4993893;28;20027;-68
2023/05/10 10:41:50;;;;;;;15.20;4.30;;;;;;;;;;4994504;28;20032;-68
2023/05/10 10:44:22;;;;;;;17.25;5.90;;;;;;;;;;4993556;28;20035;-70
2023/05/10 10:47:11;;;;;;;19.77;4.75;;;;;;;;;;4994726;28;20541;-68
2023/05/10 10:49:40;;;;;;;15.50;4.28;;;;;;;;;;4994172;28;20435;-69
2023/05/10 10:52:29;;;;;;;12.95;4.05;;;;;;;;;;4994376;28;20019;-68
2023/05/10 10:55:12;;;;;;;15.32;5.22;;;;;;;;;;4994309;28;20033;-69
2023/05/10 10:57:41;;;;;;;14.48;4.75;;;;;;;;;;4992338;28;20113;-68
2023/05/10 11:00:26;;;;;;;18.67;5.30;;;;;;;;;;4991684;28;20026;-69
2023/05/10 11:03:06;;;;;;;12.18;4.45;;;;;;;;;;4994024;28;20033;-68
2023/05/10 11:05:38;;;;;;;10.60;3.53;;;;;;;;;;4994082;28;20185;-68
2023/05/10 11:08:08;;;;;;;20.95;4.38;;;;;;;;;;4993843;28;20035;-68
2023/05/10 11:10:35;;;;;;;20.13;4.50;;;;;;;;;;4993964;28;20108;-69
2023/05/10 11:13:01;;;;;;;16.27;4.70;;;;;;;;;;4993921;28;20023;-68
2023/05/10 11:15:38;;;;;;;25.10;4.28;;;;;;;;;;4992659;28;20450;-68
2023/05/10 11:18:20;;;;;;;24.42;4.93;;;;;;;;;;4993073;28;20054;-68
2023/05/10 11:20:57;;;;;;;14.70;3.00;;;;;;;;;;4993513;28;20062;-68
2023/05/10 11:23:24;;;;;;;20.08;4.10;;;;;;;;;;4993142;28;20026;-68
2023/05/10 11:25:50;;;;;;;22.70;3.92;;;;;;;;;;4993170;28;20033;-68
2023/05/10 11:28:18;;;;;;;21.48;3.85;;;;;;;;;;4993016;28;20022;-69
2023/05/10 11:30:45;;;;;;;17.73;3.63;;;;;;;;;;4993286;28;20057;-68
2023/05/10 11:33:15;;;;;;;18.05;3.78;;;;;;;;;;4992241;28;20451;-68
2023/05/10 11:35:41;;;;;;;15.30;3.22;;;;;;;;;;4993399;28;20041;-68
2023/05/10 11:38:08;;;;;;;17.73;3.13;;;;;;;;;;4993327;28;20022;-68
2023/05/10 11:40:34;;;;;;;10.38;2.78;;;;;;;;;;4993380;28;20037;-67
2023/05/10 11:43:01;;;;;;;19.10;3.45;;;;;;;;;;4992312;28;20030;-68
2023/05/10 11:45:28;;;;;;;18.45;2.63;;;;;;;;;;4993282;28;20022;-67
2023/05/10 11:47:54;;;;;;;16.05;3.13;;;;;;;;;;4992792;28;20030;-68
2023/05/10 11:50:20;;;;;;;22.33;2.95;;;;;;;;;;4993037;28;20442;-68
2023/05/10 11:52:51;;;;;;;12.93;2.30;;;;;;;;;;4993128;28;20026;-68
2023/05/10 11:55:17;;;;;;;16.15;3.03;;;;;;;;;;4993087;28;20018;-68
2023/05/10 11:57:45;;;;;;;23.30;3.03;;;;;;;;;;4991615;28;20041;-68
2023/05/10 12:00:12;;;;;;;7.75;2.53;;;;;;;;;;4992973;28;20019;-68
2023/05/10 12:02:38;;;;;;;17.65;3.22;;;;;;;;;;4991894;28;20037;-68
2023/05/10 12:05:05;;;;;;;15.73;2.53;;;;;;;;;;4992589;28;20061;-68
2023/05/10 12:07:31;;;;;;;11.63;2.70;;;;;;;;;;4992877;28;20022;-68
2023/05/10 12:10:10;;;;;;;13.90;2.08;;;;;;;;;;4992278;28;20035;-69
2023/05/10 12:12:41;;;;;;;13.52;2.88;;;;;;;;;;4992846;28;20034;-67
2023/05/10 12:15:11;;;;;;;16.13;2.88;;;;;;;;;;4992852;28;20447;-67
2023/05/10 12:17:38;;;;;;;16.13;2.83;;;;;;;;;;4989231;28;20037;-67
2023/05/10 12:20:15;;;;;;;15.40;2.60;;;;;;;;;;4992043;28;20074;-68
2023/05/10 12:22:41;;;;;;;15.95;2.67;;;;;;;;;;4992455;28;20038;-67
2023/05/10 12:25:09;;;;;;;18.45;2.75;;;;;;;;;;4992354;28;20018;-68
2023/05/10 12:27:35;;;;;;;14.15;2.78;;;;;;;;;;4992350;28;20076;-68
2023/05/10 12:30:02;;;;;;;14.77;3.25;;;;;;;;;;4992155;28;20062;-68
2023/05/10 12:32:38;;;;;;;17.65;3.30;;;;;;;;;;4992148;28;20503;-69
2023/05/10 12:35:04;;;;;;;15.60;3.08;;;;;;;;;;4989588;28;20471;-69
2023/05/10 12:37:30;;;;;;;11.02;2.25;;;;;;;;;;4992431;28;20058;-69
2023/05/10 12:39:56;;;;;;;12.85;2.33;;;;;;;;;;4990907;28;20061;-69
2023/05/10 12:42:24;;;;;;;16.17;3.33;;;;;;;;;;4992203;28;20132;-68
2023/05/10 12:44:55;;;;;;;21.42;2.13;;;;;;;;;;4992096;28;20023;-68
2023/05/10 12:47:21;;;;;;;7.30;1.65;;;;;;;;;;4992098;28;20165;-69
2023/05/10 12:49:47;;;;;;;12.57;3.10;;;;;;;;;;4992085;28;20546;-67
2023/05/10 12:52:13;;;;;;;12.23;2.53;;;;;;;;;;4989771;28;20034;-68
2023/05/10 12:54:39;;;;;;;15.80;2.10;;;;;;;;;;4992113;28;20034;-68
2023/05/10 12:57:05;;;;;;;15.65;2.78;;;;;;;;;;4991863;28;20029;-68
2023/05/10 12:59:31;;;;;;;15.40;2.83;;;;;;;;;;4991798;28;20447;-68
2023/05/10 13:01:58;;;;;;;9.43;2.28;;;;;;;;;;4992042;28;20137;-68
2023/05/10 13:04:24;;;;;;;9.90;2.17;;;;;;;;;;4990303;28;20109;-68
2023/05/10 13:06:50;;;;;;;15.20;2.22;;;;;;;;;;4991557;28;20065;-67
2023/05/10 13:09:16;;;;;;;18.95;3.03;;;;;;;;;;4990481;28;20108;-67
2023/05/10 13:11:42;;;;;;;11.65;2.60;;;;;;;;;;4991702;28;20029;-69
2023/05/10 13:14:08;;;;;;;22.50;2.45;;;;;;;;;;4991811;28;20521;-68
2023/05/10 13:16:34;;;;;;;10.95;2.30;;;;;;;;;;4991526;28;20031;-69
2023/05/10 13:19:00;;;;;;;14.10;2.50;;;;;;;;;;4991605;28;20022;-68
2023/05/10 13:21:26;;;;;;;12.93;2.42;;;;;;;;;;4991556;28;20117;-68
2023/05/10 13:23:52;;;;;;;17.45;2.03;;;;;;;;;;4992062;28;20503;-69
2023/05/10 13:26:18;;;;;;;19.55;3.00;;;;;;;;;;4990698;28;20057;-68
2023/05/10 13:28:45;;;;;;;16.35;2.72;;;;;;;;;;4991391;28;20504;-68
2023/05/10 13:31:11;;;;;;;14.77;2.08;;;;;;;;;;4989132;28;20042;-68
2023/05/10 13:33:37;;;;;;;15.48;2.20;;;;;;;;;;4991556;28;20018;-68
2023/05/10 13:36:03;;;;;;;11.63;1.98;;;;;;;;;;4992049;28;20034;-69
2023/05/10 13:38:29;;;;;;;12.05;2.08;;;;;;;;;;4991752;28;20035;-68
2023/05/10 13:40:56;;;;;;;10.95;1.98;;;;;;;;;;4991072;28;20384;-69
2023/05/10 13:43:22;;;;;;;9.48;1.77;;;;;;;;;;4991577;28;20033;-69
2023/05/10 13:45:48;;;;;;;9.40;1.80;;;;;;;;;;4991875;28;20480;-69
2023/05/10 13:48:14;;;;;;;10.80;2.28;;;;;;;;;;4993113;28;20030;-68
2023/05/10 13:50:40;;;;;;;11.00;2.03;;;;;;;;;;4995124;28;20399;-70
2023/05/10 13:53:06;;;;;;;8.88;1.63;;;;;;;;;;4995300;28;20019;-69
2023/05/10 13:55:32;;;;;;;8.52;1.88;;;;;;;;;;4994089;28;20387;-69
2023/05/10 13:57:58;;;;;;;14.77;3.53;;;;;;;;;;4995503;28;20022;-69
2023/05/10 14:00:24;;;;;;;18.23;2.20;;;;;;;;;;4995307;28;20365;-70
2023/05/10 14:02:50;;;;;;;13.25;2.40;;;;;;;;;;4995707;28;20030;-69
2023/05/10 14:05:16;;;;;;;10.57;2.53;;;;;;;;;;4992729;28;20030;-68
2023/05/10 14:07:42;;;;;;;9.93;2.33;;;;;;;;;;4995126;28;20464;-67
2023/05/10 14:10:08;;;;;;;14.02;2.70;;;;;;;;;;4995100;28;20039;-68
2023/05/10 14:12:34;;;;;;;11.10;2.30;;;;;;;;;;4995069;28;20076;-68
2023/05/10 14:15:01;;;;;;;15.38;3.00;;;;;;;;;;4995067;28;20507;-69
2023/05/10 14:17:27;;;;;;;15.70;2.55;;;;;;;;;;4994953;28;20022;-69
2023/05/10 14:19:53;;;;;;;19.10;2.78;;;;;;;;;;4992495;28;20083;-69
2023/05/10 14:22:19;;;;;;;12.88;2.28;;;;;;;;;;4995050;28;20080;-68
2023/05/10 14:24:46;;;;;;;11.70;2.75;;;;;;;;;;4994968;28;20061;-69
2023/05/10 14:27:13;;;;;;;15.13;2.97;;;;;;;;;;4994764;28;20019;-70
2023/05/10 14:29:39;;;;;;;14.75;2.67;;;;;;;;;;4994734;28;20041;-69
2023/05/10 14:32:05;;;;;;;20.23;2.75;;;;;;;;;;4994671;28;20018;-68
2023/05/10 14:34:31;;;;;;;15.20;2.97;;;;;;;;;;4994641;28;20379;-68